• Join FlightAware (Why Join?)
  • Login
  • US Flag 
11:23PM EDT


 

Airport Tracker/Info


-or-


 

Live Flight TrackerFlight Track Log ✈ FLG4160 ✈ 21-Apr-2013 ✈ KBNA - KCVG

Flight Track Log - Related Links

Times and Time Zones

All times are in EDT time to prevent confusion due to time zone crossing. See the FLG4160 flight status page for this flight to view local times or setup timezone preferences in your user account.

Time Position Orientation Groundspeed Altitude Reporting Facility
EDT Latitude Longitude Course Direction KTS MPH feet Rate Location/Type
06:20PM 36.1500 -86.6667 26° Northeast 145 167 1,200  Level Nashville TRACON
06:21PM 36.1833 -86.6667 360° North 162 186 2,400 1,920 Climbing Nashville TRACON
06:22PM 36.2333 -86.6333 28° Northeast 221 254 4,700 2,400 Climbing Nashville TRACON
06:23PM 36.3825 -86.5535 20° North  Level FlightAware Approximate
06:23PM 36.3000 -86.6000 22° Northeast 286 329 7,200  Level Nashville TRACON
06:23PM 36.3164 -86.5992 North 278 320 8,000 2,760 Climbing Memphis Center
06:24PM 36.4706 -86.5134 20° North  Level FlightAware Approximate
06:24PM 36.3903 -86.5622 22° Northeast 302 348 10,800  Level Memphis Center
06:25PM 36.5579 -86.4710 22° Northeast  Level FlightAware Approximate
06:25PM 36.4767 -86.5244 19° North 308 354 12,300  Level Memphis Center
06:26PM 36.6427 -86.4211 26° Northeast  Level FlightAware Approximate
06:26PM 36.5711 -86.4789 21° North 344 396 14,500  Level Memphis Center
06:27PM 36.6533 -86.4386 21° North 354 407 16,200 1,740 Climbing Memphis Center
06:28PM 36.7536 -86.3872 22° Northeast 368 423 18,000 1,560 Climbing Memphis Center
06:29PM 36.8500 -86.3383 22° Northeast 375 432 19,400 1,440 Climbing Memphis Center
06:30PM 36.9525 -86.2864 22° Northeast 380 437 20,900 600 Climbing Memphis Center
06:32PM 37.1278 -86.1981 22° Northeast 409 471 21,000  Climbing Indianapolis Center
06:33PM 37.2339 -86.1431 22° Northeast 409 471 21,000  Level Indianapolis Center
06:34PM 37.3356 -86.0803 26° Northeast 404 465 21,000  Level Indianapolis Center
06:35PM 37.4378 -86.0133 27° Northeast 408 470 21,000  Level Indianapolis Center
06:36PM 37.5650 -85.9592 19° North 408 470 21,000  Level Indianapolis Center
06:37PM 37.6564 -85.9194 19° North 410 472 21,000  Level Indianapolis Center
06:38PM 37.7847 -85.8614 20° North 407 468 21,000  Level Indianapolis Center
06:39PM 37.8919 -85.8150 19° North 407 468 21,000  Level Indianapolis Center
06:40PM 37.9983 -85.7672 19° North 406 467 21,000  Level Indianapolis Center
06:41PM 38.1044 -85.7186 20° North 405 466 21,000 -780 Level Indianapolis Center
06:42PM 38.2111 -85.6711 19° North 405 466 19,400 -1,560 Descending Indianapolis Center
06:43PM 38.3158 -85.6239 19° North 400 460 17,800 -1,920 Descending Indianapolis Center
06:45PM 38.4269 -85.5725 20° North 353 406 15,500 -2,040 Descending Indianapolis Center
06:46PM 38.5203 -85.5308 19° North 353 406 13,600 -1,680 Descending Indianapolis Center
06:47PM 38.6097 -85.4897 20° North 343 395 12,100 -1,260 Descending Indianapolis Center
06:48PM 38.6931 -85.4497 21° North 325 374 11,000 -960 Descending Indianapolis Center
06:49PM 38.7183 -85.3469 72° East 309 356 10,200 -900 Descending Indianapolis Center
06:50PM 38.7269 -85.2481 84° East 285 328 9,200 -1,020 Descending Indianapolis Center
06:51PM 38.7181 -85.1478 96° East 282 325 8,200 -1,020 Descending Indianapolis Center
06:52PM 38.7167 -84.9833 91° East 269 310 6,600 -1,020 Descending Cincinnati TRACON
06:53PM 38.7233 -84.9361 80° East 273 314 6,100 -600 Descending Indianapolis Center
06:54PM 38.7428 -84.8411 75° East 268 308 5,700 -900 Descending Indianapolis Center
06:56PM 38.8167 -84.6667 61° Northeast 221 254 3,100 -840 Descending Cincinnati TRACON
06:57PM 38.8667 -84.6667 360° North 171 197 3,000 -60 Descending Cincinnati TRACON
06:58PM 38.9167 -84.6667 360° North 170 196 3,000 -420 Level Cincinnati TRACON
06:59PM 38.9667 -84.6667 360° North 173 199 2,200 -720 Descending Cincinnati TRACON
07:00PM 39.0000 -84.6667 360° North 140 161 1,600 -720 Descending Cincinnati TRACON